Time;durP1;ratioP1;P1;durP2;ratioP2;P2;SDS_P1;SDS_P2;PMS_P1;PMS_P2;Temp;Humidity;BMP_temperature;BMP_pressure;BME280_temperature;BME280_humidity;BME280_pressure;Samples;Min_cycle;Max_cycle;Signal;HPM_P1;HPM_P2
2022/06/12 00:01:57;;;;;;;2.80;1.50;;;16.10;42.10;;;;;;5093134;28;20219;-69
2022/06/12 00:04:23;;;;;;;4.33;1.73;;;16.10;99.90;;;;;;5093387;28;20257;-69
2022/06/12 00:06:49;;;;;;;6.03;1.97;;;16.00;95.30;;;;;;5093337;28;20172;-68
2022/06/12 00:09:15;;;;;;;4.30;1.90;;;15.90;99.90;;;;;;5093118;28;20295;-69
2022/06/12 00:11:43;;;;;;;11.20;2.03;;;15.90;99.90;;;;;;5093010;28;20307;-69
2022/06/12 00:14:11;;;;;;;4.40;1.60;;;15.90;99.90;;;;;;5093068;28;20630;-68
2022/06/12 00:16:40;;;;;;;6.57;1.77;;;15.90;99.90;;;;;;5093246;28;20214;-69
2022/06/12 00:19:08;;;;;;;6.63;1.77;;;15.90;99.90;;;;;;5093093;28;20156;-70
2022/06/12 00:21:35;;;;;;;7.50;2.00;;;16.00;77.50;;;;;;5093179;28;20175;-69
2022/06/12 00:24:08;;;;;;;3.23;1.70;;;15.90;99.90;;;;;;5091986;28;20615;-69
2022/06/12 00:26:41;;;;;;;4.43;1.90;;;15.90;99.90;;;;;;5092790;28;20172;-68
2022/06/12 00:29:15;;;;;;;4.43;1.80;;;15.90;99.90;;;;;;5093193;28;20183;-69
2022/06/12 00:31:45;;;;;;;3.83;1.73;;;15.90;99.90;;;;;;5092964;28;20701;-69
2022/06/12 00:34:13;;;;;;;5.17;1.57;;;15.80;99.90;;;;;;5093146;28;20535;-68
2022/06/12 00:36:39;;;;;;;2.37;1.80;;;15.80;99.90;;;;;;5093035;28;20175;-69
2022/06/12 00:39:06;;;;;;;6.70;1.90;;;15.80;99.90;;;;;;5092999;28;20172;-69
2022/06/12 00:41:32;;;;;;;4.07;1.93;;;15.80;99.90;;;;;;5092684;28;20175;-70
2022/06/12 00:43:58;;;;;;;3.60;1.87;;;15.70;1.00;;;;;;5096865;28;20172;-70
2022/06/12 00:46:57;;;;;;;4.23;2.00;;;15.70;1.00;;;;;;5096875;28;20160;-69
2022/06/12 00:49:36;;;;;;;6.13;2.17;;;15.70;1.00;;;;;;5096897;28;20248;-68
2022/06/12 00:52:20;;;;;;;5.30;2.00;;;15.60;1.00;;;;;;5096714;28;20627;-70
2022/06/12 00:54:51;;;;;;;5.10;2.23;;;15.50;1.00;;;;;;5095065;28;20179;-68
2022/06/12 00:57:18;;;;;;;7.40;2.23;;;15.50;1.00;;;;;;5096641;28;20179;-68
2022/06/12 00:59:51;;;;;;;5.73;2.30;;;15.50;1.00;;;;;;5096611;28;20209;-69
2022/06/12 01:02:23;;;;;;;4.60;2.00;;;15.50;1.00;;;;;;5096268;28;20302;-69
2022/06/12 01:07:36;;;;;;;7.77;2.10;;;15.40;1.00;;;;;;5096501;28;20175;-69
2022/06/12 01:10:07;;;;;;;8.30;2.47;;;15.30;1.00;;;;;;5095890;28;20222;-69
2022/06/12 01:12:38;;;;;;;5.40;2.53;;;15.30;1.00;;;;;;5096421;28;20183;-68
2022/06/12 01:15:14;;;;;;;6.00;2.23;;;15.30;1.00;;;;;;5096472;28;20180;-70
2022/06/12 01:17:40;;;;;;;5.27;2.37;;;15.30;1.00;;;;;;5096395;28;20278;-69
2022/06/12 01:20:11;;;;;;;5.37;1.83;;;15.30;1.00;;;;;;5096014;28;20266;-69
2022/06/12 01:22:51;;;;;;;6.03;2.10;;;15.20;1.00;;;;;;5096436;28;20175;-69
2022/06/12 01:25:35;;;;;;;5.33;2.10;;;15.20;1.00;;;;;;5095991;28;20233;-68
2022/06/12 01:28:38;;;;;;;3.67;1.83;;;15.10;1.00;;;;;;5096343;28;20196;-69
2022/06/12 01:31:07;;;;;;;6.73;2.33;;;15.10;1.00;;;;;;5094707;28;20203;-69
2022/06/12 01:33:43;;;;;;;5.80;1.60;;;15.10;1.00;;;;;;5096046;28;20225;-69
2022/06/12 01:36:25;;;;;;;6.17;2.43;;;15.00;1.00;;;;;;5094723;28;20170;-68
2022/06/12 01:39:01;;;;;;;6.53;2.20;;;15.00;1.00;;;;;;5095406;28;20175;-69
2022/06/12 01:41:33;;;;;;;5.60;1.97;;;14.90;1.00;;;;;;5095793;28;20180;-69
2022/06/12 01:44:27;;;;;;;5.50;1.80;;;14.90;1.00;;;;;;5095974;28;20168;-69
2022/06/12 01:47:03;;;;;;;6.77;1.77;;;14.90;1.00;;;;;;5093728;28;20574;-69
2022/06/12 01:49:51;;;;;;;9.30;2.00;;;14.90;1.00;;;;;;5095535;28;20182;-69
2022/06/12 01:52:29;;;;;;;4.93;2.20;;;14.80;1.00;;;;;;5095193;28;20772;-69
2022/06/12 01:55:00;;;;;;;8.07;2.00;;;14.90;1.00;;;;;;5095623;28;20176;-69
2022/06/12 01:57:32;;;;;;;5.23;2.00;;;14.80;1.00;;;;;;5095663;28;20294;-69
2022/06/12 02:00:09;;;;;;;8.73;1.80;;;14.80;1.00;;;;;;5095154;28;20194;-69
2022/06/12 02:02:35;;;;;;;6.37;2.23;;;14.80;1.00;;;;;;5095363;28;20175;-68
2022/06/12 02:05:06;;;;;;;5.30;2.03;;;14.70;1.00;;;;;;5094166;28;20186;-68
2022/06/12 02:07:44;;;;;;;6.07;2.37;;;14.60;1.00;;;;;;5095121;28;20262;-68
2022/06/12 02:10:15;;;;;;;6.87;2.27;;;14.60;1.00;;;;;;5094957;28;20211;-67
2022/06/12 02:13:11;;;;;;;10.40;2.30;;;14.60;1.00;;;;;;5095310;28;20696;-70
2022/06/12 02:16:18;;;;;;;5.83;2.10;;;14.60;1.00;;;;;;5095481;28;20187;-69
2022/06/12 02:18:55;;;;;;;5.93;2.30;;;14.60;1.00;;;;;;5084307;28;20195;-68
2022/06/12 02:21:43;;;;;;;6.30;2.53;;;14.50;1.00;;;;;;5094975;28;20194;-69
2022/06/12 02:24:24;;;;;;;5.70;2.10;;;14.60;1.00;;;;;;5093827;28;20176;-69
2022/06/12 02:27:06;;;;;;;6.93;2.30;;;14.60;1.00;;;;;;5094852;28;20160;-68
2022/06/12 02:29:46;;;;;;;5.70;2.47;;;14.60;1.00;;;;;;5094865;28;20172;-68
2022/06/12 02:32:38;;;;;;;6.20;2.23;;;14.50;1.00;;;;;;5094765;28;20217;-69
2022/06/12 02:35:12;;;;;;;7.20;2.60;;;14.50;1.00;;;;;;5094974;28;20179;-69
2022/06/12 02:37:44;;;;;;;8.50;2.50;;;14.50;1.00;;;;;;5094627;28;20182;-70
2022/06/12 02:40:19;;;;;;;9.47;2.43;;;14.50;1.00;;;;;;5094614;28;20221;-70
2022/06/12 02:42:48;;;;;;;8.63;2.20;;;14.50;1.00;;;;;;5094766;28;20271;-69
2022/06/12 02:45:33;;;;;;;7.10;2.33;;;14.40;1.00;;;;;;5094810;28;20207;-68
2022/06/12 02:48:00;;;;;;;6.60;2.20;;;14.40;1.00;;;;;;5094658;28;20688;-69
2022/06/12 02:50:31;;;;;;;7.77;2.03;;;14.40;1.00;;;;;;5094012;28;20204;-70
2022/06/12 02:53:12;;;;;;;7.57;2.43;;;14.40;1.00;;;;;;5094447;28;20198;-68
2022/06/12 02:55:44;;;;;;;8.90;2.30;;;14.40;1.00;;;;;;5094534;28;20187;-68
2022/06/12 02:58:20;;;;;;;7.00;2.50;;;14.40;1.00;;;;;;5094388;28;20164;-68
2022/06/12 03:01:21;;;;;;;9.57;2.57;;;14.40;1.00;;;;;;5092763;28;20671;-69
2022/06/12 03:04:10;;;;;;;6.27;2.43;;;14.30;1.00;;;;;;5012147;28;20182;-68
2022/06/12 03:06:37;;;;;;;8.37;2.50;;;14.40;1.00;;;;;;5011432;28;20708;-69
2022/06/12 03:09:05;;;;;;;6.57;2.30;;;14.40;1.00;;;;;;5012053;28;20198;-70
2022/06/12 03:11:37;;;;;;;7.10;2.60;;;14.40;1.00;;;;;;5012070;28;20210;-69
2022/06/12 03:14:08;;;;;;;7.43;2.70;;;14.40;1.00;;;;;;4995832;28;20175;-69
2022/06/12 03:16:37;;;;;;;6.57;2.40;;;14.30;1.00;;;;;;5012191;28;20198;-69
2022/06/12 03:19:23;;;;;;;7.07;2.10;;;14.30;1.00;;;;;;5011686;28;20189;-69
2022/06/12 03:21:58;;;;;;;8.70;2.60;;;14.30;1.00;;;;;;5012012;28;20190;-69
2022/06/12 03:24:23;;;;;;;5.33;2.23;;;14.30;1.00;;;;;;5011922;28;20177;-68
2022/06/12 03:27:09;;;;;;;7.83;2.20;;;14.30;1.00;;;;;;5011818;28;20555;-68
2022/06/12 03:29:40;;;;;;;9.60;2.20;;;14.30;1.00;;;;;;5011746;28;20174;-68
2022/06/12 03:32:29;;;;;;;8.03;2.80;;;14.30;1.00;;;;;;5011433;28;20237;-68
2022/06/12 03:35:01;;;;;;;7.23;2.80;;;14.30;1.00;;;;;;5011411;28;20266;-68
2022/06/12 03:37:34;;;;;;;8.00;2.63;;;14.30;1.00;;;;;;5011671;28;20171;-68
2022/06/12 03:40:08;;;;;;;9.07;2.60;;;14.40;1.00;;;;;;5046621;28;20676;-68
2022/06/12 03:42:42;;;;;;;7.97;2.60;;;14.40;1.00;;;;;;5093519;28;20168;-68
2022/06/12 03:45:25;;;;;;;7.00;2.40;;;14.40;1.00;;;;;;5093750;28;20175;-69
2022/06/12 03:48:13;;;;;;;5.20;2.10;;;14.50;1.00;;;;;;5093705;28;20195;-68
2022/06/12 03:50:44;;;;;;;10.97;2.80;;;14.40;1.00;;;;;;5093376;28;20705;-68
2022/06/12 03:53:18;;;;;;;10.70;2.63;;;14.50;1.00;;;;;;5093447;28;20159;-68
2022/06/12 03:59:00;;;;;;;5.20;2.60;;;14.80;1.00;;;;;;5093611;28;20187;-68
2022/06/12 04:01:26;;;;;;;12.50;2.77;;;15.10;1.00;;;;;;5093278;28;20277;-68
2022/06/12 04:03:54;;;;;;;9.10;2.80;;;15.40;1.00;;;;;;5093065;28;20217;-68
2022/06/12 04:06:25;;;;;;;6.37;2.43;;;15.60;1.00;;;;;;5092911;28;20666;-68
2022/06/12 04:09:03;;;;;;;7.63;2.50;;;16.00;1.00;;;;;;5092942;28;20203;-69
2022/06/12 04:11:32;;;;;;;6.07;2.53;;;16.40;1.00;;;;;;5093224;28;20685;-69
2022/06/12 04:13:59;;;;;;;8.53;2.43;;;16.60;1.00;;;;;;5093226;28;20180;-68
2022/06/12 04:16:38;;;;;;;9.80;2.80;;;16.80;1.00;;;;;;5094516;28;20168;-69
2022/06/12 04:19:11;;;;;;;9.87;2.70;;;17.10;99.90;;;;;;5096834;28;20171;-69
2022/06/12 04:21:50;;;;;;;11.13;2.53;;;17.10;99.90;;;;;;5097127;28;20180;-68
2022/06/12 04:24:19;;;;;;;9.13;2.53;;;17.20;99.90;;;;;;5095922;28;20179;-69
2022/06/12 04:27:11;;;;;;;7.33;2.73;;;17.60;1.00;;;;;;5097191;28;20172;-69
2022/06/12 04:29:39;;;;;;;9.70;2.73;;;18.10;99.90;;;;;;5096750;28;20301;-69
2022/06/12 04:32:07;;;;;;;7.00;2.63;;;18.60;1.00;;;;;;5096743;28;20226;-69
2022/06/12 04:34:37;;;;;;;8.20;2.60;;;19.10;68.20;;;;;;5097086;28;20190;-69
2022/06/12 04:37:14;;;;;;;5.07;2.37;;;19.40;1.00;;;;;;5097065;28;20700;-69
2022/06/12 04:39:41;;;;;;;9.33;2.80;;;19.40;1.00;;;;;;5096801;28;20171;-69
2022/06/12 04:42:07;;;;;;;9.88;2.70;;;19.90;99.90;;;;;;5096724;28;20186;-69
2022/06/12 04:44:33;;;;;;;8.82;2.83;;;20.50;1.00;;;;;;5096424;28;20640;-69
2022/06/12 04:47:01;;;;;;;6.32;2.65;;;21.00;1.00;;;;;;5096438;28;20209;-69
2022/06/12 04:49:31;;;;;;;6.93;2.72;;;21.50;99.90;;;;;;5096707;28;20229;-70
2022/06/12 04:51:58;;;;;;;8.35;2.72;;;21.80;1.00;;;;;;5095447;28;20238;-69
2022/06/12 04:54:26;;;;;;;8.02;3.05;;;21.80;1.00;;;;;;5095028;28;20527;-69
2022/06/12 04:56:52;;;;;;;7.22;2.83;;;21.70;1.00;;;;;;5096080;28;20578;-70
2022/06/12 04:59:19;;;;;;;8.55;2.78;;;21.70;1.00;;;;;;5096429;28;20164;-70
2022/06/12 05:01:47;;;;;;;6.78;2.75;;;22.20;1.00;;;;;;5095840;28;20228;-69
2022/06/12 05:04:12;;;;;;;11.88;3.00;;;23.10;1.00;;;;;;5096579;28;20164;-70
2022/06/12 05:06:39;;;;;;;9.20;2.88;;;24.10;99.90;;;;;;5096490;28;20176;-69
2022/06/12 05:09:06;;;;;;;5.97;3.15;;;23.50;99.90;;;;;;5095943;28;20681;-71
2022/06/12 05:11:32;;;;;;;9.13;3.95;;;23.40;99.90;;;;;;5096025;28;20734;-70
2022/06/12 05:13:58;;;;;;;8.95;2.95;;;24.20;99.90;;;;;;5096250;28;20176;-70
2022/06/12 05:16:26;;;;;;;8.60;3.20;;;24.90;99.90;;;;;;5096070;28;20172;-70
2022/06/12 05:18:52;;;;;;;10.05;3.08;;;25.40;99.90;;;;;;5096027;28;20202;-70
2022/06/12 05:21:18;;;;;;;7.35;2.95;;;25.50;99.90;;;;;;5096383;28;20542;-71
2022/06/12 05:23:44;;;;;;;8.75;3.15;;;25.60;99.90;;;;;;5096180;28;20185;-70
2022/06/12 05:26:13;;;;;;;9.57;3.42;;;26.20;99.90;;;;;;5095883;28;20176;-71
2022/06/12 05:28:39;;;;;;;10.50;5.10;;;26.20;99.90;;;;;;5093792;28;20699;-71
2022/06/12 05:31:05;;;;;;;8.60;2.90;;;26.30;99.90;;;;;;5095780;28;20239;-71
2022/06/12 05:33:30;;;;;;;9.05;3.08;;;26.40;99.90;;;;;;5095959;28;20638;-72
2022/06/12 05:35:56;;;;;;;5.25;2.40;;;27.20;99.90;;;;;;5095928;28;20255;-71
2022/06/12 05:38:22;;;;;;;10.10;3.17;;;28.10;99.90;;;;;;5095627;28;20260;-71
2022/06/12 05:40:47;;;;;;;9.00;3.03;;;28.70;99.90;;;;;;5095643;28;20176;-71
2022/06/12 05:43:13;;;;;;;8.65;3.22;;;28.60;99.90;;;;;;5095483;28;20168;-72
2022/06/12 05:45:39;;;;;;;7.57;3.00;;;29.20;99.90;;;;;;5095329;28;20164;-71
2022/06/12 05:48:09;;;;;;;11.20;3.38;;;29.40;99.90;;;;;;5095536;28;20172;-72
2022/06/12 05:50:37;;;;;;;4.95;2.75;;;29.90;99.90;;;;;;5095490;28;20199;-72
2022/06/12 05:53:03;;;;;;;8.20;3.08;;;30.20;99.90;;;;;;5095444;28;20160;-73
2022/06/12 05:55:29;;;;;;;10.30;3.30;;;30.10;99.90;;;;;;5095247;28;20179;-73
2022/06/12 05:57:54;;;;;;;9.30;3.40;;;30.20;99.90;;;;;;5094235;28;20172;-72
2022/06/12 06:00:26;;;;;;;9.73;3.30;;;30.80;99.90;;;;;;5094702;28;20563;-73
2022/06/12 06:02:51;;;;;;;8.85;3.38;;;31.30;99.90;;;;;;5095302;28;20167;-73
2022/06/12 06:05:17;;;;;;;9.27;3.42;;;31.40;99.90;;;;;;5095570;28;20164;-73
2022/06/12 06:07:43;;;;;;;10.68;3.90;;;31.40;99.90;;;;;;5095288;28;20301;-73
2022/06/12 06:10:14;;;;;;;7.13;3.33;;;31.70;99.90;;;;;;5094977;28;20306;-72
2022/06/12 06:12:40;;;;;;;10.07;3.63;;;32.00;99.90;;;;;;5095024;28;20168;-72
2022/06/12 06:15:07;;;;;;;9.95;3.60;;;32.10;99.90;;;;;;5094760;28;20176;-72
2022/06/12 06:17:32;;;;;;;10.63;3.55;;;31.30;99.90;;;;;;5094669;28;20249;-71
2022/06/12 06:19:58;;;;;;;12.00;4.05;;;30.60;99.90;;;;;;5094970;28;20199;-72
2022/06/12 06:22:23;;;;;;;12.68;4.38;;;29.50;99.90;;;;;;5094985;28;20625;-72
2022/06/12 06:24:49;;;;;;;11.52;3.50;;;28.80;99.90;;;;;;5094954;28;20172;-71
2022/06/12 06:27:15;;;;;;;12.43;3.80;;;27.60;99.90;;;;;;5094893;28;20164;-72
2022/06/12 06:29:42;;;;;;;11.95;3.58;;;27.00;99.90;;;;;;5094164;28;20172;-73
2022/06/12 06:32:08;;;;;;;10.63;3.78;;;26.50;99.90;;;;;;5094778;28;20171;-73
2022/06/12 06:34:36;;;;;;;12.10;3.88;;;27.10;99.90;;;;;;5094665;28;20172;-72
2022/06/12 06:37:02;;;;;;;10.13;4.00;;;26.30;99.90;;;;;;5094443;28;20176;-71
2022/06/12 06:39:27;;;;;;;10.70;4.43;;;25.40;99.90;;;;;;5093668;28;20210;-72
2022/06/12 06:41:53;;;;;;;10.77;3.92;;;24.90;99.90;;;;;;5094344;28;20164;-70
2022/06/12 06:47:03;;;;;;;8.80;3.88;;;23.70;1.00;;;;;;5094420;28;20547;-72
2022/06/12 06:49:29;;;;;;;10.95;4.10;;;24.20;1.00;;;;;;5093977;28;20215;-73
2022/06/12 06:51:55;;;;;;;10.00;3.97;;;25.50;99.90;;;;;;5094191;28;20250;-73
2022/06/12 06:54:21;;;;;;;9.32;4.00;;;26.70;99.90;;;;;;5094554;28;20163;-74
2022/06/12 06:56:47;;;;;;;10.68;3.88;;;27.80;99.90;;;;;;5093946;28;20168;-73
2022/06/12 06:59:13;;;;;;;10.02;4.18;;;29.50;99.90;;;;;;5094533;28;20172;-73
2022/06/12 07:01:39;;;;;;;13.63;4.47;;;30.60;99.90;;;;;;5093485;28;20220;-72
2022/06/12 07:04:05;;;;;;;9.63;4.05;;;31.70;99.90;;;;;;5094309;28;20172;-74
2022/06/12 07:06:31;;;;;;;11.98;3.92;;;32.20;99.90;;;;;;5094273;28;20168;-74
2022/06/12 07:08:56;;;;;;;8.40;4.20;;;32.70;99.90;;;;;;5094216;28;20839;-73
2022/06/12 07:11:23;;;;;;;8.65;3.97;;;33.00;99.90;;;;;;5093781;28;20662;-74
2022/06/12 07:13:49;;;;;;;10.20;4.03;;;32.40;99.90;;;;;;5093832;28;20234;-75
2022/06/12 07:16:16;;;;;;;11.20;4.10;;;33.20;99.90;;;;;;5094145;28;20245;-73
2022/06/12 07:18:43;;;;;;;8.90;3.72;;;33.20;99.90;;;;;;5093626;28;20611;-73
2022/06/12 07:21:10;;;;;;;9.18;3.70;;;32.30;99.90;;;;;;5093699;28;20176;-73
2022/06/12 07:23:36;;;;;;;11.75;4.00;;;33.20;99.90;;;;;;5092528;28;20168;-72
2022/06/12 07:26:06;;;;;;;9.30;4.22;;;34.20;98.20;;;;;;5091811;28;20189;-74
2022/06/12 07:28:34;;;;;;;9.88;4.05;;;34.60;92.40;;;;;;5093266;28;20205;-73
2022/06/12 07:31:01;;;;;;;9.02;3.83;;;34.80;88.20;;;;;;5093602;28;20206;-74
2022/06/12 07:33:26;;;;;;;8.40;3.90;;;34.90;84.30;;;;;;5093690;28;20189;-74
2022/06/12 07:35:53;;;;;;;9.68;4.18;;;34.70;75.50;;;;;;5093604;28;20172;-75
2022/06/12 07:38:23;;;;;;;9.32;3.72;;;34.60;93.40;;;;;;5093026;28;20615;-73
2022/06/12 07:40:52;;;;;;;11.50;4.20;;;34.20;76.20;;;;;;5093145;28;20633;-75
2022/06/12 07:43:18;;;;;;;9.95;4.13;;;35.20;72.20;;;;;;5093417;28;20630;-74
2022/06/12 07:45:44;;;;;;;11.98;4.68;;;36.10;59.60;;;;;;5092753;28;20252;-74
2022/06/12 07:48:11;;;;;;;10.38;4.55;;;34.90;56.60;;;;;;5093320;28;20198;-76
2022/06/12 07:50:39;;;;;;;8.27;3.80;;;34.60;61.70;;;;;;5092915;28;20199;-75
2022/06/12 07:53:06;;;;;;;10.82;4.30;;;33.90;64.20;;;;;;5093363;28;20175;-75
2022/06/12 07:55:31;;;;;;;10.35;4.00;;;33.50;65.10;;;;;;5092848;28;20190;-75
2022/06/12 07:57:57;;;;;;;7.75;4.28;;;33.60;66.70;;;;;;5092768;28;20627;-75
2022/06/12 08:00:23;;;;;;;7.57;3.75;;;33.80;66.30;;;;;;5092905;28;20270;-76
2022/06/12 08:02:50;;;;;;;9.85;4.18;;;33.90;63.10;;;;;;5093082;28;20223;-75
2022/06/12 08:05:20;;;;;;;9.35;3.80;;;33.20;66.60;;;;;;5093654;28;20616;-75
2022/06/12 08:07:46;;;;;;;7.95;3.50;;;33.40;70.40;;;;;;5093237;28;20178;-76
2022/06/12 08:10:13;;;;;;;8.38;3.53;;;33.40;67.20;;;;;;5092496;28;20215;-76
2022/06/12 08:12:42;;;;;;;11.80;4.10;;;34.10;67.40;;;;;;5092870;28;20176;-75
2022/06/12 08:15:13;;;;;;;9.00;4.35;;;34.60;63.00;;;;;;5092354;28;20176;-75
2022/06/12 08:17:38;;;;;;;7.03;3.70;;;34.80;55.30;;;;;;5093059;28;20184;-75
2022/06/12 08:22:49;;;;;;;10.77;3.50;;;35.00;49.20;;;;;;5093298;28;20178;-75
2022/06/12 08:25:15;;;;;;;8.73;3.50;;;34.80;44.20;;;;;;5092046;28;20258;-76
2022/06/12 08:27:40;;;;;;;6.88;3.33;;;34.60;44.40;;;;;;5092932;28;20574;-76
2022/06/12 08:30:07;;;;;;;7.35;3.05;;;34.70;43.90;;;;;;5092343;28;20206;-76
2022/06/12 08:32:34;;;;;;;7.95;3.22;;;33.90;45.00;;;;;;5093114;28;20178;-76
2022/06/12 08:35:05;;;;;;;6.22;3.30;;;33.00;71.10;;;;;;5092600;28;20164;-77
2022/06/12 08:37:37;;;;;;;9.57;3.28;;;33.40;48.70;;;;;;5092994;28;20180;-75
2022/06/12 08:40:05;;;;;;;8.88;3.65;;;34.30;46.70;;;;;;5092145;28;20191;-75
2022/06/12 08:42:43;;;;;;;7.68;3.30;;;34.80;45.30;;;;;;5092623;28;20164;-75
2022/06/12 08:45:17;;;;;;;7.45;2.83;;;34.80;43.20;;;;;;5092594;28;20175;-77
2022/06/12 08:47:51;;;;;;;4.90;2.75;;;34.80;39.60;;;;;;5092599;28;20167;-75
2022/06/12 08:50:27;;;;;;;6.05;2.92;;;35.50;31.00;;;;;;5092388;28;20202;-76
2022/06/12 08:52:55;;;;;;;5.28;2.85;;;35.00;32.60;;;;;;5092090;28;20498;-74
2022/06/12 08:55:44;;;;;;;4.60;2.42;;;35.90;28.80;;;;;;5091103;28;20552;-75
2022/06/12 08:58:36;;;;;;;5.75;2.95;;;35.10;27.70;;;;;;5092134;28;20539;-75
2022/06/12 09:01:02;;;;;;;4.50;2.20;;;35.30;24.80;;;;;;5092452;28;20230;-75
2022/06/12 09:03:35;;;;;;;4.38;2.55;;;35.10;21.40;;;;;;5094161;28;20176;-74
2022/06/12 09:06:31;;;;;;;5.93;2.40;;;33.90;24.40;;;;;;5095840;28;20176;-74
2022/06/12 09:09:20;;;;;;;5.85;2.50;;;34.60;23.60;;;;;;5095340;28;20192;-74
2022/06/12 09:11:55;;;;;;;6.45;2.60;;;34.90;22.30;;;;;;5096133;28;20302;-74
2022/06/12 09:14:58;;;;;;;6.03;2.72;;;34.70;20.40;;;;;;5095716;28;20193;-75
2022/06/12 09:17:39;;;;;;;6.43;2.40;;;35.30;19.20;;;;;;5096467;28;20171;-73
2022/06/12 09:20:26;;;;;;;6.05;2.53;;;35.90;15.30;;;;;;5095849;28;20174;-75
2022/06/12 09:23:13;;;;;;;5.25;2.70;;;36.80;13.20;;;;;;5095411;28;20179;-75
2022/06/12 09:25:56;;;;;;;6.35;3.08;;;37.10;10.40;;;;;;5095770;28;20175;-74
2022/06/12 09:28:24;;;;;;;6.13;2.67;;;36.30;11.80;;;;;;5096002;28;20212;-74
2022/06/12 09:31:00;;;;;;;6.30;2.67;;;35.90;9.40;;;;;;5096002;28;20214;-75
2022/06/12 09:33:50;;;;;;;4.95;2.80;;;35.00;11.90;;;;;;5096164;28;20164;-73
2022/06/12 09:36:33;;;;;;;7.03;2.90;;;33.80;13.90;;;;;;5095404;28;20183;-74
2022/06/12 09:39:08;;;;;;;4.47;2.63;;;34.20;14.90;;;;;;5095410;28;20523;-74
2022/06/12 09:42:06;;;;;;;6.97;2.97;;;34.50;14.30;;;;;;5095840;28;20164;-74
2022/06/12 09:44:32;;;;;;;3.63;2.75;;;34.80;13.40;;;;;;5095363;28;20214;-75
2022/06/12 09:47:31;;;;;;;5.40;2.35;;;35.30;11.30;;;;;;5096001;28;20176;-75
2022/06/12 09:50:09;;;;;;;6.65;2.28;;;34.70;12.40;;;;;;5095494;28;20172;-75
2022/06/12 09:52:56;;;;;;;4.95;2.45;;;35.20;11.40;;;;;;5095066;28;20172;-73
2022/06/12 09:55:48;;;;;;;5.05;2.22;;;34.70;10.10;;;;;;5094049;28;20175;-74
2022/06/12 09:58:19;;;;;;;4.50;2.70;;;33.40;12.00;;;;;;5095143;28;20252;-74
2022/06/12 10:00:53;;;;;;;4.75;2.33;;;32.70;15.20;;;;;;5095073;28;20238;-74
2022/06/12 10:03:47;;;;;;;2.67;1.70;;;33.30;13.30;;;;;;5095105;28;20249;-73
2022/06/12 10:06:25;;;;;;;4.00;2.00;;;33.20;13.80;;;;;;5094749;28;20224;-76
2022/06/12 10:08:56;;;;;;;6.43;2.40;;;33.70;12.20;;;;;;5093523;28;20227;-73
2022/06/12 10:11:36;;;;;;;5.22;2.35;;;31.70;14.20;;;;;;5094813;28;20203;-74
2022/06/12 10:14:17;;;;;;;3.15;2.10;;;32.20;15.90;;;;;;5094707;28;20164;-75
2022/06/12 10:17:08;;;;;;;5.03;2.53;;;33.20;11.60;;;;;;5094847;28;20172;-73
2022/06/12 10:19:49;;;;;;;5.60;2.53;;;33.00;14.80;;;;;;5094909;28;20171;-73
2022/06/12 10:22:29;;;;;;;7.05;2.35;;;32.90;14.80;;;;;;5094501;28;20172;-73
2022/06/12 10:24:56;;;;;;;6.10;2.53;;;32.50;14.70;;;;;;5094832;28;20563;-74
2022/06/12 10:27:23;;;;;;;3.88;2.30;;;32.20;16.00;;;;;;5094217;28;20164;-73
2022/06/12 10:29:51;;;;;;;5.55;2.47;;;32.60;15.10;;;;;;5094729;28;20175;-73
2022/06/12 10:32:20;;;;;;;4.60;2.50;;;31.80;19.90;;;;;;5094062;28;20176;-73
2022/06/12 10:34:46;;;;;;;5.80;2.75;;;31.80;19.90;;;;;;5094230;28;20251;-73
2022/06/12 10:37:24;;;;;;;4.38;2.42;;;31.80;16.30;;;;;;5094302;28;20670;-73
2022/06/12 10:40:03;;;;;;;4.57;2.33;;;31.40;21.90;;;;;;5093751;28;20171;-72
2022/06/12 10:42:49;;;;;;;5.78;2.70;;;30.00;46.60;;;;;;5094351;28;20539;-73
2022/06/12 10:45:25;;;;;;;6.00;2.80;;;28.70;31.70;;;;;;5094256;28;20768;-74
2022/06/12 10:47:53;;;;;;;8.25;2.70;;;28.40;38.50;;;;;;5093133;28;20178;-72
2022/06/12 10:50:32;;;;;;;7.85;2.42;;;28.10;42.60;;;;;;5093177;28;20249;-73
2022/06/12 10:53:09;;;;;;;5.68;2.75;;;27.70;48.90;;;;;;5094120;28;20171;-74
2022/06/12 10:55:53;;;;;;;6.32;2.50;;;28.60;51.20;;;;;;5094391;28;20176;-73
2022/06/12 10:58:31;;;;;;;5.22;2.33;;;29.70;46.20;;;;;;5094081;28;20179;-73
2022/06/12 11:01:04;;;;;;;7.30;2.88;;;30.40;41.10;;;;;;5093629;28;20224;-72
2022/06/12 11:03:55;;;;;;;6.75;3.40;;;29.40;40.30;;;;;;5093592;28;20164;-72
2022/06/12 11:06:33;;;;;;;6.68;3.00;;;28.90;48.00;;;;;;5093846;28;20182;-73
2022/06/12 11:09:16;;;;;;;7.97;3.00;;;29.00;52.70;;;;;;5093652;28;20195;-73
2022/06/12 11:12:03;;;;;;;4.93;2.50;;;29.40;51.10;;;;;;5093262;28;20238;-73
2022/06/12 11:14:38;;;;;;;4.38;2.50;;;28.50;51.30;;;;;;5093948;28;20186;-73
2022/06/12 11:17:14;;;;;;;5.18;2.22;;;28.90;53.20;;;;;;5093350;28;20201;-71
2022/06/12 11:20:10;;;;;;;4.90;2.20;;;29.10;75.70;;;;;;5093114;28;20191;-73
2022/06/12 11:23:03;;;;;;;4.25;2.35;;;29.40;49.70;;;;;;5093602;28;20654;-73
2022/06/12 11:25:36;;;;;;;4.65;2.35;;;29.50;44.30;;;;;;5093087;28;20635;-72
2022/06/12 11:28:41;;;;;;;8.98;2.70;;;29.70;40.30;;;;;;5093585;28;20175;-72
2022/06/12 11:31:31;;;;;;;4.18;2.63;;;29.50;44.30;;;;;;5093037;28;20210;-73
2022/06/12 11:34:25;;;;;;;4.88;2.20;;;29.30;42.90;;;;;;5092916;28;20561;-74
2022/06/12 11:37:27;;;;;;;7.32;2.72;;;28.50;47.80;;;;;;5093062;28;20656;-73
2022/06/12 11:40:30;;;;;;;4.72;2.42;;;27.70;53.00;;;;;;5093202;28;20185;-73
2022/06/12 11:43:09;;;;;;;6.05;2.45;;;27.50;59.00;;;;;;5093164;28;20206;-73
2022/06/12 11:46:02;;;;;;;6.43;2.88;;;27.90;57.30;;;;;;5092688;28;20168;-74
2022/06/12 11:48:27;;;;;;;5.00;2.45;;;27.20;64.70;;;;;;5092687;28;20506;-74
2022/06/12 11:51:17;;;;;;;5.43;2.83;;;27.10;74.10;;;;;;5092877;28;20337;-74
2022/06/12 11:53:51;;;;;;;5.60;3.10;;;26.90;80.80;;;;;;5092663;28;20160;-73
2022/06/12 11:56:54;;;;;;;7.30;2.42;;;27.00;85.40;;;;;;5093417;28;20155;-73
2022/06/12 11:59:47;;;;;;;5.18;2.60;;;27.20;83.90;;;;;;5091636;28;20179;-73
2022/06/12 12:02:31;;;;;;;7.07;3.00;;;27.20;80.40;;;;;;5092536;28;20223;-74
2022/06/12 12:05:26;;;;;;;6.97;2.80;;;27.00;85.00;;;;;;5092868;28;20171;-74
2022/06/12 12:08:24;;;;;;;5.72;3.00;;;26.30;92.80;;;;;;5092883;28;20631;-73
2022/06/12 12:11:08;;;;;;;4.68;2.63;;;26.90;96.80;;;;;;5065604;28;20295;-72
2022/06/12 12:13:43;;;;;;;5.60;2.47;;;26.40;98.80;;;;;;5093079;28;20167;-73
2022/06/12 12:16:12;;;;;;;5.07;2.90;;;26.10;99.90;;;;;;5092341;28;20179;-72
2022/06/12 12:18:50;;;;;;;4.45;2.58;;;25.80;99.90;;;;;;5092312;28;20233;-73
2022/06/12 12:21:28;;;;;;;8.63;2.78;;;26.10;99.90;;;;;;5091631;28;20211;-72
2022/06/12 12:23:55;;;;;;;6.25;2.55;;;25.60;99.90;;;;;;5093074;28;20178;-72
2022/06/12 12:26:35;;;;;;;7.03;2.85;;;25.30;99.90;;;;;;5092595;28;20173;-72
2022/06/12 12:29:06;;;;;;;7.75;2.90;;;25.20;99.90;;;;;;5092828;28;20194;-71
2022/06/12 12:31:33;;;;;;;8.60;2.95;;;25.30;99.90;;;;;;5090609;28;20211;-71
2022/06/12 12:34:02;;;;;;;4.78;3.05;;;24.90;99.90;;;;;;5092930;28;20183;-71
2022/06/12 12:42:34;;;;;;;5.45;2.78;;;25.20;99.90;;;;;;5096816;28;20561;-71
2022/06/12 12:45:11;;;;;;;8.63;2.83;;;25.50;99.90;;;;;;5096498;28;20184;-72
2022/06/12 12:47:37;;;;;;;4.95;2.95;;;25.60;99.90;;;;;;5095905;28;20167;-71
2022/06/12 12:50:08;;;;;;;5.53;2.53;;;25.80;99.90;;;;;;5094947;28;20179;-71
2022/06/12 12:52:44;;;;;;;6.90;2.53;;;26.20;99.90;;;;;;5096496;28;20539;-71
2022/06/12 12:55:32;;;;;;;8.57;3.08;;;26.00;99.90;;;;;;5096396;28;20561;-71
2022/06/12 12:58:01;;;;;;;4.88;2.65;;;25.60;99.90;;;;;;5096216;28;20179;-71
2022/06/12 13:00:36;;;;;;;6.03;2.50;;;25.30;99.90;;;;;;5095194;28;20369;-72
2022/06/12 13:03:09;;;;;;;5.28;2.60;;;25.30;99.90;;;;;;5096271;28;20193;-72
2022/06/12 13:06:03;;;;;;;5.25;2.58;;;25.60;99.90;;;;;;5095067;28;20172;-71
2022/06/12 13:08:49;;;;;;;4.65;2.45;;;25.50;99.90;;;;;;5059026;28;20218;-72
2022/06/12 13:11:35;;;;;;;4.20;2.30;;;25.10;99.90;;;;;;5095968;28;20203;-72
2022/06/12 13:14:26;;;;;;;5.57;2.45;;;25.20;99.90;;;;;;5094418;28;20623;-72
2022/06/12 13:17:00;;;;;;;6.22;2.53;;;25.40;99.90;;;;;;5095935;28;20168;-71
2022/06/12 13:19:45;;;;;;;8.57;2.10;;;25.60;99.90;;;;;;5096038;28;20163;-72
2022/06/12 13:22:41;;;;;;;6.22;2.45;;;25.70;99.90;;;;;;5095448;28;20167;-71
2022/06/12 13:25:14;;;;;;;4.20;2.35;;;25.80;99.90;;;;;;5054492;28;20211;-72
2022/06/12 13:27:50;;;;;;;6.35;2.28;;;25.60;99.90;;;;;;5095744;28;20172;-72
2022/06/12 13:30:22;;;;;;;3.10;2.13;;;25.50;99.90;;;;;;5095237;28;20198;-72
2022/06/12 13:32:48;;;;;;;5.95;2.50;;;25.70;99.90;;;;;;5094791;28;20580;-71
2022/06/12 13:35:42;;;;;;;3.65;2.17;;;25.80;99.90;;;;;;5095678;28;20180;-72
2022/06/12 13:38:42;;;;;;;4.93;2.17;;;25.90;99.90;;;;;;5095754;28;20196;-71
2022/06/12 13:41:33;;;;;;;3.13;2.28;;;25.80;99.90;;;;;;5090322;28;20243;-71
2022/06/12 13:44:18;;;;;;;4.75;2.20;;;25.40;99.90;;;;;;5094178;28;20293;-73